Página principal
METAR-TAF:

METAR-TAF

Aeroportos :

Aeroporto Internacional de Túnis-Cartago

Tunes, Tunísia

latitude: 36-50N, longitude: 010-14E, altura: 3 m

Observação actual do tempo

O boletim foi feito há 45 minutos, às 05:30 UTC
Vento 6 kt de este
Temperatura 21°C
Humidade 83%
Pressão 1016 hPa
Visibilidade 10 km ou mais
Poucas nuvensa uma altura de 2000 ft

METAR: DTTA 260530Z 01002KT CAVOK 19/16 Q1016 NO??TK?(???(:H?TTJ 260530Z 08006KT 9999 FEW020 21/18 Q1016 NOSIG

Hora: 07:15 (06:15 UTC)

Previsão

O boletim foi feito há 40 minutos, às 05:35 UTC
Previsão válida de 26 às 06 UTC a 27 às 06 UTC
Vento 2 kt de norte
Visibilidade 10 km ou mais
sem nuvens abaixo de 1500 metros e sem cumulonimbus
Tornando-se
de 26 às 18 UTC a 26 às 20 UTC
Vento 16 kt de es-sudeste
Probabilidade 30% :
Temporariamente
de 27 às 02 UTC a 27 às 06 UTC
Vento 16 kt de su-sudeste com rajadas de 26 kt

TAF: DTTA 260535Z 2606/2706 01002KT CAVOK BECMG 2618/2620 11016KT PROB30 TEMPO 2702/2706 15016G26KT

Observações e previsões do tempo de mais de 4000 aeroportos (mensagens METAR e TAF).

As estações disponíveis são os pontos amarelos e vermelhos sobre o mapa.

Mova o rato sobre o mapa para ver o nome da estação.

Depois clique no ponto para visualizar as observações e previsões meteorológicas.

Para alterar o mapa : clique nos botões verdes com uma cruz preta para aumentar o zoom; no botão verde com uma pitada de zoom; ou nas setas verdes para mapas adjacentes.


METAR-TAF: